sensor_id;sensor_type;location;lat;lon;timestamp;P1;durP1;ratioP1;P2;durP2;ratioP2
46322;SDS011;32044;52.386;13.278;2023-07-02T00:00:14;2.83;;;2.20;;
46322;SDS011;32044;52.386;13.278;2023-07-02T00:02:41;2.28;;;1.90;;
46322;SDS011;32044;52.386;13.278;2023-07-02T00:05:10;3.85;;;1.98;;
46322;SDS011;32044;52.386;13.278;2023-07-02T00:07:38;4.88;;;1.88;;
46322;SDS011;32044;52.386;13.278;2023-07-02T00:10:05;2.55;;;1.73;;
46322;SDS011;32044;52.386;13.278;2023-07-02T00:12:33;2.10;;;1.80;;
46322;SDS011;32044;52.386;13.278;2023-07-02T00:15:01;1.95;;;1.58;;
46322;SDS011;32044;52.386;13.278;2023-07-02T00:17:29;3.40;;;1.88;;
46322;SDS011;32044;52.386;13.278;2023-07-02T00:19:57;1.90;;;1.80;;
46322;SDS011;32044;52.386;13.278;2023-07-02T00:22:36;2.72;;;2.05;;
46322;SDS011;32044;52.386;13.278;2023-07-02T00:25:04;2.55;;;1.90;;
46322;SDS011;32044;52.386;13.278;2023-07-02T00:27:31;4.38;;;2.10;;
46322;SDS011;32044;52.386;13.278;2023-07-02T00:29:59;5.97;;;2.15;;
46322;SDS011;32044;52.386;13.278;2023-07-02T00:32:27;2.03;;;1.92;;
46322;SDS011;32044;52.386;13.278;2023-07-02T00:34:54;2.15;;;2.03;;
46322;SDS011;32044;52.386;13.278;2023-07-02T00:37:22;3.92;;;2.45;;
46322;SDS011;32044;52.386;13.278;2023-07-02T00:39:51;2.33;;;2.13;;
46322;SDS011;32044;52.386;13.278;2023-07-02T00:42:18;5.13;;;2.38;;
46322;SDS011;32044;52.386;13.278;2023-07-02T00:44:46;3.10;;;2.60;;
46322;SDS011;32044;52.386;13.278;2023-07-02T00:47:14;3.05;;;2.65;;
46322;SDS011;32044;52.386;13.278;2023-07-02T00:49:42;3.13;;;2.60;;
46322;SDS011;32044;52.386;13.278;2023-07-02T00:52:10;5.32;;;2.60;;
46322;SDS011;32044;52.386;13.278;2023-07-02T00:54:37;3.97;;;2.95;;
46322;SDS011;32044;52.386;13.278;2023-07-02T00:57:08;3.50;;;3.17;;
46322;SDS011;32044;52.386;13.278;2023-07-02T00:59:35;3.83;;;2.75;;
46322;SDS011;32044;52.386;13.278;2023-07-02T01:02:04;3.38;;;2.83;;
46322;SDS011;32044;52.386;13.278;2023-07-02T01:04:33;4.93;;;3.22;;
46322;SDS011;32044;52.386;13.278;2023-07-02T01:07:00;5.38;;;3.50;;
46322;SDS011;32044;52.386;13.278;2023-07-02T01:09:30;3.28;;;2.97;;
46322;SDS011;32044;52.386;13.278;2023-07-02T01:11:58;5.25;;;3.15;;
46322;SDS011;32044;52.386;13.278;2023-07-02T01:14:30;5.80;;;3.85;;
46322;SDS011;32044;52.386;13.278;2023-07-02T01:16:59;4.40;;;4.00;;
46322;SDS011;32044;52.386;13.278;2023-07-02T01:19:38;7.07;;;3.85;;
46322;SDS011;32044;52.386;13.278;2023-07-02T01:22:08;4.07;;;3.67;;
46322;SDS011;32044;52.386;13.278;2023-07-02T01:24:38;7.97;;;4.72;;
46322;SDS011;32044;52.386;13.278;2023-07-02T01:27:06;8.05;;;4.60;;
46322;SDS011;32044;52.386;13.278;2023-07-02T01:29:33;5.90;;;4.07;;
46322;SDS011;32044;52.386;13.278;2023-07-02T01:32:03;4.55;;;3.90;;
46322;SDS011;32044;52.386;13.278;2023-07-02T01:34:31;7.55;;;4.65;;
46322;SDS011;32044;52.386;13.278;2023-07-02T01:37:00;7.85;;;5.10;;
46322;SDS011;32044;52.386;13.278;2023-07-02T01:39:28;6.30;;;5.45;;
46322;SDS011;32044;52.386;13.278;2023-07-02T01:42:06;6.13;;;5.40;;
46322;SDS011;32044;52.386;13.278;2023-07-02T01:44:35;8.57;;;5.45;;
46322;SDS011;32044;52.386;13.278;2023-07-02T01:47:03;6.72;;;5.38;;
46322;SDS011;32044;52.386;13.278;2023-07-02T01:49:31;5.45;;;4.93;;
46322;SDS011;32044;52.386;13.278;2023-07-02T01:51:58;6.78;;;5.40;;
46322;SDS011;32044;52.386;13.278;2023-07-02T01:54:27;5.60;;;4.80;;
46322;SDS011;32044;52.386;13.278;2023-07-02T01:56:55;5.78;;;4.97;;
46322;SDS011;32044;52.386;13.278;2023-07-02T01:59:23;5.57;;;5.00;;
46322;SDS011;32044;52.386;13.278;2023-07-02T02:01:51;7.03;;;4.80;;
46322;SDS011;32044;52.386;13.278;2023-07-02T02:04:19;5.85;;;4.60;;
46322;SDS011;32044;52.386;13.278;2023-07-02T02:06:46;4.97;;;4.45;;
46322;SDS011;32044;52.386;13.278;2023-07-02T02:09:14;6.38;;;4.03;;
46322;SDS011;32044;52.386;13.278;2023-07-02T02:11:45;4.78;;;4.28;;
46322;SDS011;32044;52.386;13.278;2023-07-02T02:14:15;5.25;;;3.78;;
46322;SDS011;32044;52.386;13.278;2023-07-02T02:16:42;5.65;;;4.47;;
46322;SDS011;32044;52.386;13.278;2023-07-02T02:19:11;5.00;;;4.10;;
46322;SDS011;32044;52.386;13.278;2023-07-02T02:21:40;4.88;;;4.20;;
46322;SDS011;32044;52.386;13.278;2023-07-02T02:24:08;5.15;;;3.72;;
46322;SDS011;32044;52.386;13.278;2023-07-02T02:26:35;8.02;;;4.43;;
46322;SDS011;32044;52.386;13.278;2023-07-02T02:29:04;4.97;;;3.90;;
46322;SDS011;32044;52.386;13.278;2023-07-02T02:31:32;5.38;;;3.90;;
46322;SDS011;32044;52.386;13.278;2023-07-02T02:34:00;6.30;;;3.50;;
46322;SDS011;32044;52.386;13.278;2023-07-02T02:36:27;5.80;;;4.25;;
46322;SDS011;32044;52.386;13.278;2023-07-02T02:38:55;8.20;;;3.50;;
46322;SDS011;32044;52.386;13.278;2023-07-02T02:41:22;5.97;;;3.75;;
46322;SDS011;32044;52.386;13.278;2023-07-02T02:43:50;10.52;;;3.90;;
46322;SDS011;32044;52.386;13.278;2023-07-02T02:46:20;5.35;;;3.90;;
46322;SDS011;32044;52.386;13.278;2023-07-02T02:48:49;6.10;;;3.85;;
46322;SDS011;32044;52.386;13.278;2023-07-02T02:51:16;6.07;;;3.75;;
46322;SDS011;32044;52.386;13.278;2023-07-02T02:53:44;5.75;;;3.72;;
46322;SDS011;32044;52.386;13.278;2023-07-02T02:56:12;5.35;;;4.07;;
46322;SDS011;32044;52.386;13.278;2023-07-02T02:58:40;7.07;;;3.97;;
46322;SDS011;32044;52.386;13.278;2023-07-02T03:01:08;7.38;;;4.30;;
46322;SDS011;32044;52.386;13.278;2023-07-02T03:03:39;4.80;;;4.25;;
46322;SDS011;32044;52.386;13.278;2023-07-02T03:06:12;4.85;;;4.38;;
46322;SDS011;32044;52.386;13.278;2023-07-02T03:08:41;5.60;;;4.07;;
46322;SDS011;32044;52.386;13.278;2023-07-02T03:11:08;8.35;;;4.82;;
46322;SDS011;32044;52.386;13.278;2023-07-02T03:13:36;7.20;;;4.40;;
46322;SDS011;32044;52.386;13.278;2023-07-02T03:16:04;6.13;;;5.05;;
46322;SDS011;32044;52.386;13.278;2023-07-02T03:18:32;5.55;;;3.83;;
46322;SDS011;32044;52.386;13.278;2023-07-02T03:21:00;6.68;;;4.57;;
46322;SDS011;32044;52.386;13.278;2023-07-02T03:23:28;7.65;;;4.07;;
46322;SDS011;32044;52.386;13.278;2023-07-02T03:25:55;6.43;;;4.25;;
46322;SDS011;32044;52.386;13.278;2023-07-02T03:28:23;8.85;;;4.03;;
46322;SDS011;32044;52.386;13.278;2023-07-02T03:30:50;6.07;;;3.92;;
46322;SDS011;32044;52.386;13.278;2023-07-02T03:33:18;4.00;;;3.60;;
46322;SDS011;32044;52.386;13.278;2023-07-02T03:35:46;6.22;;;4.40;;
46322;SDS011;32044;52.386;13.278;2023-07-02T03:38:15;5.93;;;4.00;;
46322;SDS011;32044;52.386;13.278;2023-07-02T03:40:42;6.72;;;4.18;;
46322;SDS011;32044;52.386;13.278;2023-07-02T03:43:10;6.50;;;3.53;;
46322;SDS011;32044;52.386;13.278;2023-07-02T03:45:37;5.28;;;3.63;;
46322;SDS011;32044;52.386;13.278;2023-07-02T03:48:05;8.30;;;3.72;;
46322;SDS011;32044;52.386;13.278;2023-07-02T03:50:33;5.88;;;3.63;;
46322;SDS011;32044;52.386;13.278;2023-07-02T03:53:00;4.45;;;3.25;;
46322;SDS011;32044;52.386;13.278;2023-07-02T03:55:29;6.88;;;3.95;;
46322;SDS011;32044;52.386;13.278;2023-07-02T03:57:56;5.47;;;3.50;;
46322;SDS011;32044;52.386;13.278;2023-07-02T04:00:24;5.53;;;3.47;;
46322;SDS011;32044;52.386;13.278;2023-07-02T04:02:52;3.72;;;3.10;;
46322;SDS011;32044;52.386;13.278;2023-07-02T04:05:19;4.68;;;3.25;;
46322;SDS011;32044;52.386;13.278;2023-07-02T04:07:47;5.38;;;3.63;;
46322;SDS011;32044;52.386;13.278;2023-07-02T04:10:16;3.90;;;2.95;;
46322;SDS011;32044;52.386;13.278;2023-07-02T04:12:45;6.28;;;3.28;;
46322;SDS011;32044;52.386;13.278;2023-07-02T04:15:12;5.65;;;3.17;;
46322;SDS011;32044;52.386;13.278;2023-07-02T04:17:40;6.57;;;3.47;;
46322;SDS011;32044;52.386;13.278;2023-07-02T04:20:08;6.28;;;2.90;;
46322;SDS011;32044;52.386;13.278;2023-07-02T04:22:37;5.57;;;2.95;;
46322;SDS011;32044;52.386;13.278;2023-07-02T04:25:04;4.82;;;3.30;;
46322;SDS011;32044;52.386;13.278;2023-07-02T04:27:42;4.28;;;3.22;;
46322;SDS011;32044;52.386;13.278;2023-07-02T04:30:18;3.58;;;2.97;;
46322;SDS011;32044;52.386;13.278;2023-07-02T04:32:46;3.45;;;2.78;;
46322;SDS011;32044;52.386;13.278;2023-07-02T04:35:14;7.22;;;3.20;;
46322;SDS011;32044;52.386;13.278;2023-07-02T04:37:41;5.07;;;3.38;;
46322;SDS011;32044;52.386;13.278;2023-07-02T04:40:09;3.65;;;3.20;;
46322;SDS011;32044;52.386;13.278;2023-07-02T04:42:37;8.30;;;2.90;;
46322;SDS011;32044;52.386;13.278;2023-07-02T04:45:06;5.82;;;2.80;;
46322;SDS011;32044;52.386;13.278;2023-07-02T04:47:36;4.15;;;2.80;;
46322;SDS011;32044;52.386;13.278;2023-07-02T04:50:04;4.82;;;2.80;;
46322;SDS011;32044;52.386;13.278;2023-07-02T04:52:32;4.90;;;3.10;;
46322;SDS011;32044;52.386;13.278;2023-07-02T04:55:00;5.22;;;2.72;;
46322;SDS011;32044;52.386;13.278;2023-07-02T04:57:27;3.42;;;2.92;;
46322;SDS011;32044;52.386;13.278;2023-07-02T05:00:05;4.18;;;2.60;;
46322;SDS011;32044;52.386;13.278;2023-07-02T05:02:34;6.57;;;3.28;;
46322;SDS011;32044;52.386;13.278;2023-07-02T05:05:04;4.63;;;2.90;;
46322;SDS011;32044;52.386;13.278;2023-07-02T05:07:31;4.50;;;2.75;;
46322;SDS011;32044;52.386;13.278;2023-07-02T05:09:59;3.80;;;2.80;;
46322;SDS011;32044;52.386;13.278;2023-07-02T05:12:27;6.00;;;2.50;;
46322;SDS011;32044;52.386;13.278;2023-07-02T05:14:54;4.53;;;2.70;;
46322;SDS011;32044;52.386;13.278;2023-07-02T05:17:22;5.18;;;2.47;;
46322;SDS011;32044;52.386;13.278;2023-07-02T05:19:49;6.10;;;2.65;;
46322;SDS011;32044;52.386;13.278;2023-07-02T05:22:19;3.80;;;2.85;;
46322;SDS011;32044;52.386;13.278;2023-07-02T05:24:47;5.88;;;2.67;;
46322;SDS011;32044;52.386;13.278;2023-07-02T05:27:15;4.43;;;2.83;;
46322;SDS011;32044;52.386;13.278;2023-07-02T05:29:43;6.13;;;2.90;;
46322;SDS011;32044;52.386;13.278;2023-07-02T05:32:10;9.32;;;2.80;;
46322;SDS011;32044;52.386;13.278;2023-07-02T05:34:38;5.70;;;2.30;;
46322;SDS011;32044;52.386;13.278;2023-07-02T05:37:05;7.13;;;2.50;;
46322;SDS011;32044;52.386;13.278;2023-07-02T05:39:34;5.95;;;2.50;;
46322;SDS011;32044;52.386;13.278;2023-07-02T05:42:02;6.85;;;2.53;;
46322;SDS011;32044;52.386;13.278;2023-07-02T05:44:31;4.45;;;2.30;;
46322;SDS011;32044;52.386;13.278;2023-07-02T05:46:58;5.72;;;2.70;;
46322;SDS011;32044;52.386;13.278;2023-07-02T05:49:26;7.15;;;3.05;;
46322;SDS011;32044;52.386;13.278;2023-07-02T05:51:53;6.45;;;2.80;;
46322;SDS011;32044;52.386;13.278;2023-07-02T05:54:21;4.32;;;2.80;;
46322;SDS011;32044;52.386;13.278;2023-07-02T05:56:50;8.18;;;2.75;;
46322;SDS011;32044;52.386;13.278;2023-07-02T05:59:17;6.50;;;2.92;;
46322;SDS011;32044;52.386;13.278;2023-07-02T06:01:45;6.07;;;2.92;;
46322;SDS011;32044;52.386;13.278;2023-07-02T06:04:13;5.07;;;3.08;;
46322;SDS011;32044;52.386;13.278;2023-07-02T06:06:40;7.57;;;2.83;;
46322;SDS011;32044;52.386;13.278;2023-07-02T06:09:08;5.10;;;2.72;;
46322;SDS011;32044;52.386;13.278;2023-07-02T06:11:36;6.63;;;2.88;;
46322;SDS011;32044;52.386;13.278;2023-07-02T06:14:05;10.77;;;3.00;;
46322;SDS011;32044;52.386;13.278;2023-07-02T06:16:33;7.63;;;2.65;;
46322;SDS011;32044;52.386;13.278;2023-07-02T06:19:00;9.40;;;2.80;;
46322;SDS011;32044;52.386;13.278;2023-07-02T06:21:28;4.45;;;2.40;;
46322;SDS011;32044;52.386;13.278;2023-07-02T06:23:56;4.70;;;2.40;;
46322;SDS011;32044;52.386;13.278;2023-07-02T06:26:25;5.25;;;2.40;;
46322;SDS011;32044;52.386;13.278;2023-07-02T06:28:52;6.57;;;2.53;;
46322;SDS011;32044;52.386;13.278;2023-07-02T06:31:21;5.90;;;2.42;;
46322;SDS011;32044;52.386;13.278;2023-07-02T06:33:48;5.85;;;2.47;;
46322;SDS011;32044;52.386;13.278;2023-07-02T06:36:16;7.70;;;2.70;;
46322;SDS011;32044;52.386;13.278;2023-07-02T06:38:44;4.40;;;2.30;;
46322;SDS011;32044;52.386;13.278;2023-07-02T06:41:11;3.85;;;2.47;;
46322;SDS011;32044;52.386;13.278;2023-07-02T06:43:41;9.57;;;2.55;;
46322;SDS011;32044;52.386;13.278;2023-07-02T06:46:09;5.15;;;2.78;;
46322;SDS011;32044;52.386;13.278;2023-07-02T06:48:38;2.63;;;2.25;;
46322;SDS011;32044;52.386;13.278;2023-07-02T06:51:06;4.18;;;2.22;;
46322;SDS011;32044;52.386;13.278;2023-07-02T06:53:35;6.15;;;2.88;;
46322;SDS011;32044;52.386;13.278;2023-07-02T06:56:03;5.45;;;2.65;;
46322;SDS011;32044;52.386;13.278;2023-07-02T06:58:31;6.60;;;2.05;;
46322;SDS011;32044;52.386;13.278;2023-07-02T07:00:58;6.75;;;2.55;;
46322;SDS011;32044;52.386;13.278;2023-07-02T07:03:26;4.53;;;2.65;;
46322;SDS011;32044;52.386;13.278;2023-07-02T07:05:55;5.78;;;2.67;;
46322;SDS011;32044;52.386;13.278;2023-07-02T07:08:22;7.78;;;2.70;;
46322;SDS011;32044;52.386;13.278;2023-07-02T07:10:50;5.38;;;2.60;;
46322;SDS011;32044;52.386;13.278;2023-07-02T07:13:18;8.82;;;3.05;;
46322;SDS011;32044;52.386;13.278;2023-07-02T07:15:45;6.05;;;2.78;;
46322;SDS011;32044;52.386;13.278;2023-07-02T07:18:13;5.10;;;2.55;;
46322;SDS011;32044;52.386;13.278;2023-07-02T07:20:41;5.18;;;2.67;;
46322;SDS011;32044;52.386;13.278;2023-07-02T07:23:10;6.03;;;2.80;;
46322;SDS011;32044;52.386;13.278;2023-07-02T07:25:37;4.72;;;2.50;;
46322;SDS011;32044;52.386;13.278;2023-07-02T07:28:05;5.28;;;2.90;;
46322;SDS011;32044;52.386;13.278;2023-07-02T07:30:32;4.68;;;2.33;;
46322;SDS011;32044;52.386;13.278;2023-07-02T07:33:00;4.65;;;2.28;;
46322;SDS011;32044;52.386;13.278;2023-07-02T07:35:27;5.93;;;2.42;;
46322;SDS011;32044;52.386;13.278;2023-07-02T07:37:55;4.07;;;2.38;;
46322;SDS011;32044;52.386;13.278;2023-07-02T07:40:24;3.38;;;2.58;;
46322;SDS011;32044;52.386;13.278;2023-07-02T07:42:51;5.22;;;2.50;;
46322;SDS011;32044;52.386;13.278;2023-07-02T07:45:19;4.80;;;2.38;;
46322;SDS011;32044;52.386;13.278;2023-07-02T07:47:47;7.50;;;2.50;;
46322;SDS011;32044;52.386;13.278;2023-07-02T07:50:14;4.70;;;2.45;;
46322;SDS011;32044;52.386;13.278;2023-07-02T07:52:42;3.15;;;2.30;;
46322;SDS011;32044;52.386;13.278;2023-07-02T07:55:10;6.05;;;2.50;;
46322;SDS011;32044;52.386;13.278;2023-07-02T07:57:39;4.45;;;2.70;;
46322;SDS011;32044;52.386;13.278;2023-07-02T08:00:06;3.72;;;2.55;;
46322;SDS011;32044;52.386;13.278;2023-07-02T08:02:37;7.93;;;2.57;;
46322;SDS011;32044;52.386;13.278;2023-07-02T08:05:05;4.10;;;2.30;;
46322;SDS011;32044;52.386;13.278;2023-07-02T08:07:33;4.32;;;2.88;;
46322;SDS011;32044;52.386;13.278;2023-07-02T08:10:01;8.88;;;2.88;;
46322;SDS011;32044;52.386;13.278;2023-07-02T08:12:29;5.88;;;2.72;;
46322;SDS011;32044;52.386;13.278;2023-07-02T08:14:58;5.22;;;2.75;;
46322;SDS011;32044;52.386;13.278;2023-07-02T08:17:26;4.72;;;2.40;;
46322;SDS011;32044;52.386;13.278;2023-07-02T08:19:53;4.35;;;3.00;;
46322;SDS011;32044;52.386;13.278;2023-07-02T08:22:21;6.32;;;3.63;;
46322;SDS011;32044;52.386;13.278;2023-07-02T08:24:49;7.00;;;3.83;;
46322;SDS011;32044;52.386;13.278;2023-07-02T08:27:16;9.23;;;3.92;;
46322;SDS011;32044;52.386;13.278;2023-07-02T08:29:46;12.00;;;4.40;;
46322;SDS011;32044;52.386;13.278;2023-07-02T08:32:15;12.23;;;4.72;;
46322;SDS011;32044;52.386;13.278;2023-07-02T08:34:42;8.07;;;4.78;;
46322;SDS011;32044;52.386;13.278;2023-07-02T08:37:10;7.05;;;4.15;;
46322;SDS011;32044;52.386;13.278;2023-07-02T08:39:38;13.88;;;4.88;;
46322;SDS011;32044;52.386;13.278;2023-07-02T08:42:07;9.85;;;4.63;;
46322;SDS011;32044;52.386;13.278;2023-07-02T08:44:34;7.22;;;4.57;;
46322;SDS011;32044;52.386;13.278;2023-07-02T08:47:02;10.02;;;4.70;;
46322;SDS011;32044;52.386;13.278;2023-07-02T08:49:32;9.05;;;4.57;;
46322;SDS011;32044;52.386;13.278;2023-07-02T08:52:00;7.15;;;4.72;;
46322;SDS011;32044;52.386;13.278;2023-07-02T08:54:28;7.90;;;5.00;;
46322;SDS011;32044;52.386;13.278;2023-07-02T08:56:55;9.98;;;4.80;;
46322;SDS011;32044;52.386;13.278;2023-07-02T08:59:23;13.82;;;5.07;;
46322;SDS011;32044;52.386;13.278;2023-07-02T09:01:51;11.63;;;4.97;;
46322;SDS011;32044;52.386;13.278;2023-07-02T09:04:20;7.40;;;4.40;;
46322;SDS011;32044;52.386;13.278;2023-07-02T09:06:51;9.27;;;4.47;;
46322;SDS011;32044;52.386;13.278;2023-07-02T09:09:29;8.40;;;4.03;;
46322;SDS011;32044;52.386;13.278;2023-07-02T09:11:57;8.52;;;4.20;;
46322;SDS011;32044;52.386;13.278;2023-07-02T09:14:25;7.68;;;4.32;;
46322;SDS011;32044;52.386;13.278;2023-07-02T09:17:03;6.07;;;4.20;;
46322;SDS011;32044;52.386;13.278;2023-07-02T09:19:33;6.63;;;4.07;;
46322;SDS011;32044;52.386;13.278;2023-07-02T09:22:02;8.18;;;4.50;;
46322;SDS011;32044;52.386;13.278;2023-07-02T09:24:30;8.57;;;4.45;;
46322;SDS011;32044;52.386;13.278;2023-07-02T09:26:59;7.13;;;3.88;;
46322;SDS011;32044;52.386;13.278;2023-07-02T09:29:27;10.52;;;4.22;;
46322;SDS011;32044;52.386;13.278;2023-07-02T09:31:56;8.27;;;4.07;;
46322;SDS011;32044;52.386;13.278;2023-07-02T09:34:36;8.82;;;4.15;;
46322;SDS011;32044;52.386;13.278;2023-07-02T09:37:06;6.22;;;3.95;;
46322;SDS011;32044;52.386;13.278;2023-07-02T09:39:34;6.93;;;4.05;;
46322;SDS011;32044;52.386;13.278;2023-07-02T09:42:05;9.50;;;4.25;;
46322;SDS011;32044;52.386;13.278;2023-07-02T09:44:33;6.97;;;4.40;;
46322;SDS011;32044;52.386;13.278;2023-07-02T09:47:02;7.15;;;3.97;;
46322;SDS011;32044;52.386;13.278;2023-07-02T09:49:31;8.32;;;4.93;;
46322;SDS011;32044;52.386;13.278;2023-07-02T09:52:00;10.13;;;4.65;;
46322;SDS011;32044;52.386;13.278;2023-07-02T09:54:29;10.00;;;5.07;;
46322;SDS011;32044;52.386;13.278;2023-07-02T09:56:58;7.90;;;4.10;;
46322;SDS011;32044;52.386;13.278;2023-07-02T09:59:26;7.20;;;4.75;;
46322;SDS011;32044;52.386;13.278;2023-07-02T10:01:54;8.77;;;4.78;;
46322;SDS011;32044;52.386;13.278;2023-07-02T10:04:22;10.55;;;5.40;;
46322;SDS011;32044;52.386;13.278;2023-07-02T10:06:51;10.40;;;5.78;;
46322;SDS011;32044;52.386;13.278;2023-07-02T10:09:20;8.13;;;4.90;;
46322;SDS011;32044;52.386;13.278;2023-07-02T10:11:50;10.23;;;5.35;;
46322;SDS011;32044;52.386;13.278;2023-07-02T10:14:17;11.15;;;5.53;;
46322;SDS011;32044;52.386;13.278;2023-07-02T10:16:48;11.25;;;5.35;;
46322;SDS011;32044;52.386;13.278;2023-07-02T10:19:16;10.23;;;5.50;;
46322;SDS011;32044;52.386;13.278;2023-07-02T10:21:44;13.50;;;5.90;;
46322;SDS011;32044;52.386;13.278;2023-07-02T10:24:13;11.90;;;5.40;;
46322;SDS011;32044;52.386;13.278;2023-07-02T10:26:55;10.50;;;5.80;;
46322;SDS011;32044;52.386;13.278;2023-07-02T10:29:24;11.57;;;5.68;;
46322;SDS011;32044;52.386;13.278;2023-07-02T10:31:53;13.48;;;5.63;;
46322;SDS011;32044;52.386;13.278;2023-07-02T10:34:28;13.88;;;5.70;;
46322;SDS011;32044;52.386;13.278;2023-07-02T10:36:59;14.00;;;5.90;;
46322;SDS011;32044;52.386;13.278;2023-07-02T10:39:27;10.27;;;6.00;;
46322;SDS011;32044;52.386;13.278;2023-07-02T10:42:06;10.77;;;5.40;;
46322;SDS011;32044;52.386;13.278;2023-07-02T10:44:34;13.43;;;5.93;;
46322;SDS011;32044;52.386;13.278;2023-07-02T10:47:13;11.25;;;5.68;;
46322;SDS011;32044;52.386;13.278;2023-07-02T10:49:40;10.80;;;6.22;;
46322;SDS011;32044;52.386;13.278;2023-07-02T10:52:08;9.88;;;5.40;;
46322;SDS011;32044;52.386;13.278;2023-07-02T10:54:39;13.00;;;6.97;;
46322;SDS011;32044;52.386;13.278;2023-07-02T10:57:09;11.88;;;6.07;;
46322;SDS011;32044;52.386;13.278;2023-07-02T10:59:38;12.52;;;5.93;;
46322;SDS011;32044;52.386;13.278;2023-07-02T11:02:05;16.13;;;6.97;;
46322;SDS011;32044;52.386;13.278;2023-07-02T11:04:33;14.32;;;6.82;;
46322;SDS011;32044;52.386;13.278;2023-07-02T11:07:01;13.25;;;6.25;;
46322;SDS011;32044;52.386;13.278;2023-07-02T11:09:28;14.90;;;7.10;;
46322;SDS011;32044;52.386;13.278;2023-07-02T11:11:56;14.60;;;6.57;;
46322;SDS011;32044;52.386;13.278;2023-07-02T11:14:33;12.93;;;7.20;;
46322;SDS011;32044;52.386;13.278;2023-07-02T11:17:02;14.80;;;6.72;;
46322;SDS011;32044;52.386;13.278;2023-07-02T11:19:31;30.10;;;7.38;;
46322;SDS011;32044;52.386;13.278;2023-07-02T11:21:59;14.82;;;6.85;;
46322;SDS011;32044;52.386;13.278;2023-07-02T11:24:30;19.00;;;7.18;;
46322;SDS011;32044;52.386;13.278;2023-07-02T11:26:59;15.55;;;7.18;;
46322;SDS011;32044;52.386;13.278;2023-07-02T11:29:28;17.75;;;7.10;;
46322;SDS011;32044;52.386;13.278;2023-07-02T11:32:05;14.10;;;6.55;;
46322;SDS011;32044;52.386;13.278;2023-07-02T11:34:33;16.67;;;7.85;;
46322;SDS011;32044;52.386;13.278;2023-07-02T11:37:00;15.95;;;6.85;;
46322;SDS011;32044;52.386;13.278;2023-07-02T11:39:29;13.50;;;7.00;;
46322;SDS011;32044;52.386;13.278;2023-07-02T11:41:57;15.77;;;7.18;;
46322;SDS011;32044;52.386;13.278;2023-07-02T11:44:25;14.38;;;7.50;;
46322;SDS011;32044;52.386;13.278;2023-07-02T11:46:52;17.73;;;7.57;;
46322;SDS011;32044;52.386;13.278;2023-07-02T11:49:21;12.30;;;6.90;;
46322;SDS011;32044;52.386;13.278;2023-07-02T11:51:49;18.48;;;7.30;;
46322;SDS011;32044;52.386;13.278;2023-07-02T11:54:17;22.92;;;8.15;;
46322;SDS011;32044;52.386;13.278;2023-07-02T11:56:45;13.95;;;7.35;;
46322;SDS011;32044;52.386;13.278;2023-07-02T11:59:12;13.88;;;6.25;;
46322;SDS011;32044;52.386;13.278;2023-07-02T12:01:40;21.83;;;7.32;;
46322;SDS011;32044;52.386;13.278;2023-07-02T12:04:09;14.88;;;7.60;;
46322;SDS011;32044;52.386;13.278;2023-07-02T12:06:39;15.32;;;6.60;;
46322;SDS011;32044;52.386;13.278;2023-07-02T12:09:07;19.30;;;7.30;;
46322;SDS011;32044;52.386;13.278;2023-07-02T12:11:35;16.73;;;6.95;;
46322;SDS011;32044;52.386;13.278;2023-07-02T12:14:03;19.85;;;7.88;;
46322;SDS011;32044;52.386;13.278;2023-07-02T12:16:30;13.50;;;6.82;;
46322;SDS011;32044;52.386;13.278;2023-07-02T12:18:58;17.48;;;7.65;;
46322;SDS011;32044;52.386;13.278;2023-07-02T12:21:25;14.82;;;7.03;;
46322;SDS011;32044;52.386;13.278;2023-07-02T12:23:54;14.10;;;7.15;;
46322;SDS011;32044;52.386;13.278;2023-07-02T12:26:22;17.60;;;7.20;;
46322;SDS011;32044;52.386;13.278;2023-07-02T12:28:49;12.68;;;7.20;;
46322;SDS011;32044;52.386;13.278;2023-07-02T12:31:17;19.33;;;7.72;;
46322;SDS011;32044;52.386;13.278;2023-07-02T12:33:45;14.88;;;6.68;;
46322;SDS011;32044;52.386;13.278;2023-07-02T12:36:12;17.23;;;7.72;;
46322;SDS011;32044;52.386;13.278;2023-07-02T12:38:40;12.55;;;6.82;;
46322;SDS011;32044;52.386;13.278;2023-07-02T12:41:09;16.02;;;6.95;;
46322;SDS011;32044;52.386;13.278;2023-07-02T12:43:38;17.67;;;6.82;;
46322;SDS011;32044;52.386;13.278;2023-07-02T12:46:05;10.70;;;6.97;;
46322;SDS011;32044;52.386;13.278;2023-07-02T12:48:33;13.13;;;6.85;;
46322;SDS011;32044;52.386;13.278;2023-07-02T12:51:01;14.77;;;7.60;;
46322;SDS011;32044;52.386;13.278;2023-07-02T12:53:29;14.52;;;7.38;;
46322;SDS011;32044;52.386;13.278;2023-07-02T12:55:56;15.98;;;7.15;;
46322;SDS011;32044;52.386;13.278;2023-07-02T12:58:25;13.65;;;6.72;;
46322;SDS011;32044;52.386;13.278;2023-07-02T13:00:53;19.38;;;7.85;;
46322;SDS011;32044;52.386;13.278;2023-07-02T13:03:21;16.67;;;7.43;;
46322;SDS011;32044;52.386;13.278;2023-07-02T13:05:51;18.67;;;7.28;;
46322;SDS011;32044;52.386;13.278;2023-07-02T13:08:19;16.83;;;7.53;;
46322;SDS011;32044;52.386;13.278;2023-07-02T13:10:47;16.30;;;8.07;;
46322;SDS011;32044;52.386;13.278;2023-07-02T13:13:14;17.25;;;7.68;;
46322;SDS011;32044;52.386;13.278;2023-07-02T13:15:51;15.00;;;7.63;;
46322;SDS011;32044;52.386;13.278;2023-07-02T13:18:18;15.82;;;6.95;;
46322;SDS011;32044;52.386;13.278;2023-07-02T13:20:46;15.43;;;7.82;;
46322;SDS011;32044;52.386;13.278;2023-07-02T13:23:14;13.05;;;7.18;;
46322;SDS011;32044;52.386;13.278;2023-07-02T13:25:41;15.80;;;6.78;;
46322;SDS011;32044;52.386;13.278;2023-07-02T13:28:09;21.58;;;7.82;;
46322;SDS011;32044;52.386;13.278;2023-07-02T13:30:37;13.48;;;6.93;;
46322;SDS011;32044;52.386;13.278;2023-07-02T13:33:06;13.98;;;6.90;;
46322;SDS011;32044;52.386;13.278;2023-07-02T13:35:33;16.88;;;7.43;;
46322;SDS011;32044;52.386;13.278;2023-07-02T13:38:03;16.42;;;7.05;;
46322;SDS011;32044;52.386;13.278;2023-07-02T13:40:31;17.25;;;6.65;;
46322;SDS011;32044;52.386;13.278;2023-07-02T13:42:59;12.38;;;7.13;;
46322;SDS011;32044;52.386;13.278;2023-07-02T13:45:27;16.25;;;6.70;;
46322;SDS011;32044;52.386;13.278;2023-07-02T13:47:54;14.73;;;7.07;;
46322;SDS011;32044;52.386;13.278;2023-07-02T13:50:23;15.18;;;7.30;;
46322;SDS011;32044;52.386;13.278;2023-07-02T13:52:51;12.07;;;6.78;;
46322;SDS011;32044;52.386;13.278;2023-07-02T13:55:19;13.85;;;6.72;;
46322;SDS011;32044;52.386;13.278;2023-07-02T13:57:47;13.45;;;6.97;;
46322;SDS011;32044;52.386;13.278;2023-07-02T14:00:16;18.17;;;7.57;;
46322;SDS011;32044;52.386;13.278;2023-07-02T14:02:44;13.63;;;7.85;;
46322;SDS011;32044;52.386;13.278;2023-07-02T14:05:12;15.27;;;7.82;;
46322;SDS011;32044;52.386;13.278;2023-07-02T14:07:39;16.35;;;7.85;;
46322;SDS011;32044;52.386;13.278;2023-07-02T14:10:07;13.45;;;7.55;;
46322;SDS011;32044;52.386;13.278;2023-07-02T14:12:36;16.25;;;7.60;;
46322;SDS011;32044;52.386;13.278;2023-07-02T14:15:04;13.05;;;7.38;;
46322;SDS011;32044;52.386;13.278;2023-07-02T14:17:33;13.13;;;6.95;;
46322;SDS011;32044;52.386;13.278;2023-07-02T14:20:01;16.42;;;9.00;;
46322;SDS011;32044;52.386;13.278;2023-07-02T14:22:29;81.30;;;65.28;;
46322;SDS011;32044;52.386;13.278;2023-07-02T14:24:57;25.33;;;15.73;;
46322;SDS011;32044;52.386;13.278;2023-07-02T14:27:24;20.67;;;12.60;;
46322;SDS011;32044;52.386;13.278;2023-07-02T14:29:52;22.10;;;13.35;;
46322;SDS011;32044;52.386;13.278;2023-07-02T14:32:20;18.92;;;10.85;;
46322;SDS011;32044;52.386;13.278;2023-07-02T14:34:57;35.95;;;26.38;;
46322;SDS011;32044;52.386;13.278;2023-07-02T14:37:25;22.42;;;14.23;;